Time;durP1;ratioP1;P1;durP2;ratioP2;P2;SDS_P1;SDS_P2;PMS_P1;PMS_P2;Temp;Humidity;BMP_temperature;BMP_pressure;BME280_temperature;BME280_humidity;BME280_pressure;Samples;Min_cycle;Max_cycle;Signal;HPM_P1;HPM_P2
2024/02/13 08:54:42;;;;;;;;;;;;;;;5.87;100.00;99996.69;5779903;23;20562;-83
2024/02/13 08:57:07;;;;;;;;;;;;;;;5.71;100.00;99995.25;5008011;28;20373;-84
2024/02/13 08:59:32;;;;;;;;;;;;;;;5.69;100.00;99991.78;4993812;28;19929;-84
2024/02/13 09:01:58;;;;;;;;;;;;;;;5.67;100.00;99993.59;4994116;28;20016;-83
2024/02/13 09:04:23;;;;;;;;;;;;;;;5.57;100.00;100004.28;4993401;28;19922;-85
2024/02/13 09:06:50;;;;;;;;;;;;;;;5.54;100.00;100011.34;4992566;28;19928;-86
2024/02/13 09:09:15;;;;;;;;;;;;;;;5.47;100.00;100018.47;5007607;28;20368;-86
2024/02/13 09:11:41;;;;;;;;;;;;;;;5.41;100.00;100013.34;4994268;28;19917;-84
2024/02/13 09:14:07;;;;;;;;;;;;;;;5.35;100.00;100018.72;4994504;28;20021;-86
2024/02/13 09:16:32;;;;;;;;;;;;;;;5.35;100.00;100018.72;4993548;28;20007;-84
2024/02/13 09:18:58;;;;;;;;;;;;;;;5.35;100.00;100023.97;4994110;28;19992;-87
2024/02/13 09:21:23;;;;;;;;;;;;;;;5.28;100.00;100018.81;4994508;28;19925;-85
2024/02/13 09:23:48;;;;;;;;;;;;;;;5.34;100.00;100028.31;4990755;28;19929;-85
2024/02/13 09:26:14;;;;;;;;;;;;;;;5.31;100.00;100028.38;4992836;28;20412;-86
2024/02/13 09:29:25;;;;;;;;;;;;;;;5.22;100.00;100034.69;4992940;28;19928;-83
2024/02/13 09:31:26;;;;;;;;;;;;;;;5.21;100.00;100040.81;4984074;28;19921;-83
2024/02/13 09:33:51;;;;;;;;;;;;;;;5.18;100.00;100046.13;4993200;28;20032;-83
2024/02/13 09:36:20;;;;;;;;;;;;;;;5.21;100.00;100034.69;5008696;28;19968;-84
2024/02/13 09:38:46;;;;;;;;;;;;;;;5.16;100.00;100040.03;4991031;28;19965;-83
2024/02/13 09:41:12;;;;;;;;;;;;;;;5.13;100.00;100041.84;4992468;28;19968;-87
2024/02/13 09:43:37;;;;;;;;;;;;;;;5.11;100.00;100046.28;4993814;28;19921;-83
2024/02/13 09:46:03;;;;;;;;;;;;;;;5.07;100.00;100045.44;5008817;28;19918;-84
2024/02/13 09:48:28;;;;;;;;;;;;;;;5.07;100.00;100046.31;4993477;28;19917;-84
2024/02/13 09:50:57;;;;;;;;;;;;;;;5.09;100.00;100039.28;4992273;28;19922;-83
2024/02/13 09:53:26;;;;;;;;;;;;;;;5.08;100.00;100041.91;4992301;28;19918;-83
2024/02/13 09:55:52;;;;;;;;;;;;;;;5.04;100.00;100055.97;5011784;28;19925;-93
2024/02/13 09:58:18;;;;;;;;;;;;;;;5.00;100.00;100059.56;5013867;28;19932;-85
2024/02/13 10:00:43;;;;;;;;;;;;;;;5.01;100.00;100059.53;5032194;28;19925;-85
2024/02/13 10:03:09;;;;;;;;;;;;;;;4.96;100.00;100068.38;5014248;28;19924;-81
2024/02/13 10:05:34;;;;;;;;;;;;;;;4.99;100.00;100056.06;5032481;28;19921;-84
2024/02/13 10:07:59;;;;;;;;;;;;;;;4.91;100.00;100057.94;5032657;28;19925;-84
2024/02/13 10:10:25;;;;;;;;;;;;;;;4.90;100.00;100059.69;5012544;28;19921;-84
2024/02/13 10:12:53;;;;;;;;;;;;;;;4.98;100.00;100053.44;5032738;28;20008;-87
2024/02/13 10:15:19;;;;;;;;;;;;;;;4.91;100.00;100057.94;5031758;28;19925;-83
2024/02/13 10:17:45;;;;;;;;;;;;;;;4.89;100.00;100052.69;5032434;28;19923;-82
2024/02/13 10:20:17;;;;;;;;;;;;;;;4.87;100.00;100054.50;5031526;28;19921;-83
2024/02/13 10:22:49;;;;;;;;;;;;;;;4.93;100.00;100055.28;5013855;28;20364;-82
2024/02/13 10:25:21;;;;;;;;;;;;;;;4.88;100.00;100061.50;5030724;28;19939;-84
2024/02/13 10:27:48;;;;;;;;;;;;;;;4.84;100.00;100070.28;5032248;28;19932;-82
2024/02/13 10:30:23;;;;;;;;;;;;;;;4.89;100.00;100078.97;5031707;28;20651;-85
2024/02/13 10:32:48;;;;;;;;;;;;;;;4.98;100.00;100077.09;5013633;28;19972;-84
2024/02/13 10:35:14;;;;;;;;;;;;;;;4.88;100.00;100071.09;5032108;28;19956;-86
2024/02/13 10:37:39;;;;;;;;;;;;;;;4.93;100.00;100076.28;5013177;28;19960;-83
2024/02/13 10:40:10;;;;;;;;;;;;;;;4.87;100.00;100069.41;5030739;28;19921;-84
2024/02/13 10:42:38;;;;;;;;;;;;;;;4.85;100.00;100066.78;5031790;28;20379;-84
2024/02/13 10:45:06;;;;;;;;;;;;;;;4.82;100.00;100074.72;5013011;28;19917;-83
2024/02/13 10:47:34;;;;;;;;;;;;;;;4.80;100.00;100065.09;5030610;28;19917;-82
2024/02/13 10:50:01;;;;;;;;;;;;;;;4.75;100.00;100069.56;5032100;28;19923;-84
2024/02/13 10:52:26;;;;;;;;;;;;;;;4.77;100.00;100065.16;5032096;28;19921;-84
2024/02/13 10:54:52;;;;;;;;;;;;;;;4.79;100.00;100068.66;5030717;28;19967;-84
2024/02/13 10:57:17;;;;;;;;;;;;;;;4.77;100.00;100073.03;5031869;28;19925;-84
2024/02/13 10:59:45;;;;;;;;;;;;;;;4.75;100.00;100072.19;5031888;28;20375;-83
2024/02/13 11:02:17;;;;;;;;;;;;;;;4.76;100.00;100074.78;5013236;28;19925;-83
2024/02/13 11:04:46;;;;;;;;;;;;;;;4.74;100.00;100068.72;5011921;28;19921;-85
2024/02/13 11:07:12;;;;;;;;;;;;;;;4.77;100.00;100063.41;5013069;28;19971;-84
2024/02/13 11:09:37;;;;;;;;;;;;;;;4.72;100.00;100065.22;5030752;28;20364;-84
2024/02/13 11:12:04;;;;;;;;;;;;;;;4.69;100.00;100054.75;5031132;28;19925;-84
2024/02/13 11:14:30;;;;;;;;;;;;;;;4.71;100.00;100058.25;5031530;28;19929;-87
2024/02/13 11:16:59;;;;;;;;;;;;;;;4.66;100.00;100052.16;5013632;28;19996;-84
2024/02/13 11:19:35;;;;;;;;;;;;;;;4.70;100.00;100056.50;5031400;28;19921;-84
2024/02/13 11:22:00;;;;;;;;;;;;;;;4.68;100.00;100053.03;5031525;28;19968;-84
2024/02/13 11:24:25;;;;;;;;;;;;;;;4.69;100.00;100055.66;5011781;28;19956;-83
2024/02/13 11:26:51;;;;;;;;;;;;;;;4.65;100.00;100051.31;5031663;28;19917;-85
2024/02/13 11:29:20;;;;;;;;;;;;;;;4.65;100.00;100047.84;5012687;28;19928;-85
2024/02/13 11:31:58;;;;;;;;;;;;;;;4.69;100.00;100046.88;5030726;28;19921;-84
2024/02/13 11:34:42;;;;;;;;;;;;;;;4.66;100.00;100044.28;5031178;28;19925;-85
2024/02/13 11:37:16;;;;;;;;;;;;;;;4.65;100.00;100053.09;5030817;28;19949;-84
2024/02/13 11:39:42;;;;;;;;;;;;;;;4.65;100.00;100042.59;5032640;28;19925;-85
2024/02/13 11:42:07;;;;;;;;;;;;;;;4.61;100.00;100044.41;5034043;28;19928;-84
2024/02/13 11:44:36;;;;;;;;;;;;;;;4.61;100.00;100035.63;5035189;28;19921;-85
2024/02/13 11:47:01;;;;;;;;;;;;;;;4.58;100.00;100036.56;5035349;28;19921;-85
2024/02/13 11:49:28;;;;;;;;;;;;;;;4.62;100.00;100035.59;5032939;28;19925;-85
2024/02/13 11:51:54;;;;;;;;;;;;;;;4.58;100.00;100041.81;5030311;28;20529;-82
2024/02/13 11:54:19;;;;;;;;;;;;;;;4.55;100.00;100036.59;5033464;28;19925;-84
2024/02/13 11:56:44;;;;;;;;;;;;;;;4.57;100.00;100037.44;5034254;28;20344;-85
2024/02/13 11:59:10;;;;;;;;;;;;;;;4.64;100.00;100036.47;5016761;28;19932;-85
2024/02/13 12:01:42;;;;;;;;;;;;;;;4.64;100.00;100035.59;5034629;28;19921;-83
2024/02/13 12:04:11;;;;;;;;;;;;;;;4.60;100.00;100033.91;5034215;28;20000;-85
2024/02/13 12:06:37;;;;;;;;;;;;;;;4.58;100.00;100020.81;5035003;28;19956;-85
2024/02/13 12:09:03;;;;;;;;;;;;;;;4.57;100.00;100026.94;5032462;28;19961;-85
2024/02/13 12:11:29;;;;;;;;;;;;;;;4.57;100.00;100019.06;5033488;28;20062;-86
2024/02/13 12:13:55;;;;;;;;;;;;;;;4.54;100.00;100014.72;5028196;28;20288;-85
2024/02/13 12:16:22;;;;;;;;;;;;;;;4.55;100.00;100011.22;5034741;28;19925;-84
2024/02/13 12:18:47;;;;;;;;;;;;;;;4.58;100.00;100014.69;5034578;28;19918;-83
2024/02/13 12:21:13;;;;;;;;;;;;;;;4.54;100.00;100011.22;5016200;28;20288;-86
2024/02/13 12:23:42;;;;;;;;;;;;;;;4.54;100.00;100004.22;5033576;28;20367;-87
2024/02/13 12:26:08;;;;;;;;;;;;;;;4.50;100.00;100006.91;5034828;28;20007;-84
2024/02/13 12:28:34;;;;;;;;;;;;;;;4.54;100.00;100009.47;5034351;28;20059;-84
2024/02/13 12:31:02;;;;;;;;;;;;;;;4.49;100.00;99992.94;5033542;28;19928;-84
2024/02/13 12:33:28;;;;;;;;;;;;;;;4.50;100.00;100001.66;5034366;28;19927;-84
2024/02/13 12:36:05;;;;;;;;;;;;;;;4.50;100.00;100002.53;5033587;28;20086;-83
2024/02/13 12:38:31;;;;;;;;;;;;;;;4.54;100.00;100008.59;5032844;28;19925;-83
2024/02/13 12:40:57;;;;;;;;;;;;;;;4.55;100.00;100000.72;5013967;28;19928;-80
2024/02/13 12:43:27;;;;;;;;;;;;;;;4.49;100.00;99997.31;5034456;28;19928;-87
2024/02/13 12:46:02;;;;;;;;;;;;;;;4.50;100.00;99992.06;5033636;28;19932;-83
2024/02/13 12:48:29;;;;;;;;;;;;;;;4.50;100.00;100002.53;5034087;28;20295;-81
2024/02/13 12:50:56;;;;;;;;;;;;;;;4.49;100.00;99999.94;5033105;28;20378;-84
2024/02/13 12:53:22;;;;;;;;;;;;;;;4.46;100.00;100006.09;5033384;28;19917;-87
2024/02/13 12:55:49;;;;;;;;;;;;;;;4.46;100.00;99995.59;5032708;28;19921;-85
2024/02/13 12:58:14;;;;;;;;;;;;;;;4.44;100.00;99991.28;5014995;28;19925;-85
2024/02/13 13:00:45;;;;;;;;;;;;;;;4.49;100.00;99986.81;5033380;28;19927;-84
2024/02/13 13:03:12;;;;;;;;;;;;;;;4.46;100.00;99990.34;5033440;28;19928;-83
2024/02/13 13:05:41;;;;;;;;;;;;;;;4.50;100.00;99983.28;5015055;28;20008;-84
2024/02/13 13:08:08;;;;;;;;;;;;;;;4.46;100.00;99982.47;5033276;28;19917;-84
2024/02/13 13:10:33;;;;;;;;;;;;;;;4.46;100.00;99981.63;5031593;28;19922;-87
2024/02/13 13:12:59;;;;;;;;;;;;;;;4.48;100.00;99978.09;5015072;28;19963;-84
2024/02/13 13:15:26;;;;;;;;;;;;;;;4.51;100.00;99967.53;5033184;28;19967;-87
2024/02/13 13:17:52;;;;;;;;;;;;;;;4.50;100.00;99970.16;5015069;28;20291;-86
2024/02/13 13:20:18;;;;;;;;;;;;;;;4.50;100.00;99967.53;5032793;28;19928;-89
2024/02/13 13:22:46;;;;;;;;;;;;;;;4.40;100.00;99961.56;5033246;28;20280;-83
2024/02/13 13:25:13;;;;;;;;;;;;;;;4.45;100.00;99965.03;5031814;28;19960;-82
2024/02/13 13:27:39;;;;;;;;;;;;;;;4.45;100.00;99954.53;5033339;28;20319;-85
2024/02/13 13:30:04;;;;;;;;;;;;;;;4.43;100.00;99958.91;5032803;28;19921;-87
2024/02/13 13:32:33;;;;;;;;;;;;;;;4.48;100.00;99953.59;5033936;28;20012;-86
2024/02/13 13:35:00;;;;;;;;;;;;;;;4.49;100.00;99950.09;5015026;28;19996;-88
2024/02/13 13:37:28;;;;;;;;;;;;;;;4.42;100.00;99944.06;5032504;28;20288;-85
2024/02/13 13:39:53;;;;;;;;;;;;;;;4.47;100.00;99949.25;5032477;28;20368;-87
2024/02/13 13:42:20;;;;;;;;;;;;;;;4.45;100.00;99946.66;5033312;28;19947;-85
2024/02/13 13:44:46;;;;;;;;;;;;;;;4.48;100.00;99938.72;5015040;28;20006;-85
2024/02/13 13:47:11;;;;;;;;;;;;;;;4.45;100.00;99944.03;5033166;28;19956;-86
2024/02/13 13:49:37;;;;;;;;;;;;;;;4.47;100.00;99946.63;5014076;28;20011;-85
2024/02/13 13:52:02;;;;;;;;;;;;;;;4.45;100.00;99937.88;5032300;28;20291;-86
2024/02/13 13:54:28;;;;;;;;;;;;;;;4.46;100.00;99943.13;5013151;28;19970;-82
2024/02/13 13:56:53;;;;;;;;;;;;;;;4.50;100.00;99941.31;5032583;28;19928;-84
2024/02/13 13:59:18;;;;;;;;;;;;;;;4.47;100.00;99933.50;5013166;28;19925;-85
2024/02/13 14:01:44;;;;;;;;;;;;;;;4.42;100.00;99937.94;5032501;28;19948;-85
2024/02/13 14:04:09;;;;;;;;;;;;;;;4.47;100.00;99930.88;5013776;28;20360;-85
2024/02/13 14:06:34;;;;;;;;;;;;;;;4.45;100.00;99936.16;5032546;28;20047;-84
2024/02/13 14:09:00;;;;;;;;;;;;;;;4.46;100.00;99935.25;5013134;28;20010;-84
2024/02/13 14:11:25;;;;;;;;;;;;;;;4.47;100.00;99937.00;5014168;28;19918;-83
2024/02/13 14:13:52;;;;;;;;;;;;;;;4.42;100.00;99933.56;5013798;28;20579;-84
2024/02/13 14:16:18;;;;;;;;;;;;;;;4.47;100.00;99926.50;5013125;28;19917;-83
2024/02/13 14:18:43;;;;;;;;;;;;;;;4.49;100.00;99927.31;5013767;28;20010;-84
2024/02/13 14:21:09;;;;;;;;;;;;;;;4.46;100.00;99930.00;5014202;28;20049;-84
2024/02/13 14:23:34;;;;;;;;;;;;;;;4.53;100.00;99929.03;5030961;28;19921;-84
2024/02/13 14:25:59;;;;;;;;;;;;;;;4.46;100.00;99919.50;5031951;28;20047;-84
2024/02/13 14:28:25;;;;;;;;;;;;;;;4.47;100.00;99923.00;5013614;28;20372;-84
2024/02/13 14:30:50;;;;;;;;;;;;;;;4.44;100.00;99925.69;5013865;28;19979;-84
2024/02/13 14:33:16;;;;;;;;;;;;;;;4.46;100.00;99924.75;5031590;28;19928;-86
2024/02/13 14:35:42;;;;;;;;;;;;;;;4.48;100.00;99930.88;5032154;28;19927;-84
2024/02/13 14:38:08;;;;;;;;;;;;;;;4.42;100.00;99928.31;5013366;28;20429;-83
2024/02/13 14:40:37;;;;;;;;;;;;;;;4.49;100.00;99932.56;5012547;28;19989;-84
2024/02/13 14:43:06;;;;;;;;;;;;;;;4.42;100.00;99933.56;5013216;28;20012;-84
2024/02/13 14:45:31;;;;;;;;;;;;;;;4.46;100.00;99931.75;5031522;28;20265;-85
2024/02/13 14:47:57;;;;;;;;;;;;;;;4.42;100.00;99938.81;5013649;28;19925;-85
2024/02/13 14:50:24;;;;;;;;;;;;;;;4.49;100.00;99943.06;5012987;28;19932;-85
2024/02/13 14:52:50;;;;;;;;;;;;;;;4.43;100.00;99937.06;5031293;28;20334;-85
2024/02/13 14:55:17;;;;;;;;;;;;;;;4.45;100.00;99941.41;5011766;28;19933;-85
2024/02/13 14:57:42;;;;;;;;;;;;;;;4.44;100.00;99939.66;5007759;28;19978;-84
2024/02/13 15:00:12;;;;;;;;;;;;;;;4.44;100.00;99938.81;5031465;28;19925;-85
2024/02/13 15:02:38;;;;;;;;;;;;;;;4.52;100.00;99942.16;5012222;28;19928;-85
2024/02/13 15:05:05;;;;;;;;;;;;;;;4.45;100.00;99940.50;5012906;28;19924;-85
2024/02/13 15:07:30;;;;;;;;;;;;;;;4.46;100.00;99943.13;5031851;28;19921;-85
2024/02/13 15:09:56;;;;;;;;;;;;;;;4.45;100.00;99936.16;5011763;28;20744;-85
2024/02/13 15:12:24;;;;;;;;;;;;;;;4.47;100.00;99937.00;5031619;28;19971;-83
2024/02/13 15:14:49;;;;;;;;;;;;;;;4.45;100.00;99941.41;5034102;28;19929;-85
2024/02/13 15:17:15;;;;;;;;;;;;;;;4.47;100.00;99939.63;5035873;28;19944;-86
2024/02/13 15:19:40;;;;;;;;;;;;;;;4.41;100.00;99929.22;5035354;28;19921;-84
2024/02/13 15:22:07;;;;;;;;;;;;;;;4.47;100.00;99933.50;5035026;28;19921;-84
2024/02/13 15:24:33;;;;;;;;;;;;;;;4.46;100.00;99927.38;5033591;28;19928;-85
2024/02/13 15:30:06;;;;;;;;;;;;;;;4.48;100.00;99928.25;4995754;28;19936;-84
2024/02/13 15:32:31;;;;;;;;;;;;;;;4.48;100.00;99928.25;4996346;28;20068;-84
2024/02/13 15:34:58;;;;;;;;;;;;;;;4.46;100.00;99930.00;4995662;28;20012;-84
2024/02/13 15:48:20;;;;;;;;;;;;;;;4.52;100.00;99934.28;4996657;28;19933;-86
2024/02/13 15:50:46;;;;;;;;;;;;;;;4.55;100.00;99935.09;4993777;28;19921;-86
2024/02/13 15:53:11;;;;;;;;;;;;;;;4.57;100.00;99924.59;4994876;28;20388;-85
2024/02/13 15:55:39;;;;;;;;;;;;;;;4.62;100.00;99922.75;4995699;28;19922;-89
2024/02/13 15:58:05;;;;;;;;;;;;;;;4.57;100.00;99931.59;4994789;28;19922;-86
2024/02/13 16:00:30;;;;;;;;;;;;;;;4.50;100.00;99918.56;4995403;28;19925;-84
2024/02/13 16:02:56;;;;;;;;;;;;;;;4.57;100.00;99913.22;4994201;28;20517;-84
2024/02/13 16:05:28;;;;;;;;;;;;;;;4.51;100.00;99924.69;4995470;28;19918;-84
2024/02/13 16:07:55;;;;;;;;;;;;;;;4.53;100.00;99928.13;4993916;28;19925;-86
2024/02/13 16:10:20;;;;;;;;;;;;;;;4.51;100.00;99925.53;4994596;28;19926;-84
2024/02/13 16:12:46;;;;;;;;;;;;;;;4.53;100.00;99921.16;4992540;28;19989;-86
2024/02/13 16:15:12;;;;;;;;;;;;;;;4.52;100.00;99929.03;4995487;28;19921;-86
2024/02/13 16:17:38;;;;;;;;;;;;;;;4.50;100.00;99922.94;4993984;28;19922;-85
2024/02/13 16:20:40;;;;;;;;;;;;;;;4.54;100.00;99925.50;4994847;28;20012;-92
2024/02/13 16:23:05;;;;;;;;;;;;;;;4.52;100.00;99931.66;4994103;28;20336;-87
2024/02/13 16:25:34;;;;;;;;;;;;;;;4.54;100.00;99933.38;4995298;28;19921;-86
2024/02/13 16:28:00;;;;;;;;;;;;;;;4.52;100.00;99939.53;5002578;28;19932;-86
2024/02/13 16:30:26;;;;;;;;;;;;;;;4.51;100.00;99937.81;5034008;28;19921;-87
2024/02/13 16:32:51;;;;;;;;;;;;;;;4.49;100.00;99937.81;5033415;28;19928;-86
2024/02/13 16:35:16;;;;;;;;;;;;;;;4.51;100.00;99936.03;5034654;28;19960;-87
2024/02/13 16:37:42;;;;;;;;;;;;;;;4.47;100.00;99939.63;5034162;28;19955;-90
2024/02/13 16:40:11;;;;;;;;;;;;;;;4.47;100.00;99934.38;5024233;28;19918;-87
2024/02/13 16:42:38;;;;;;;;;;;;;;;4.49;100.00;99944.84;5032957;28;19917;-86
2024/02/13 16:45:03;;;;;;;;;;;;;;;4.50;100.00;99943.94;5033524;28;19921;-85
2024/02/13 16:47:29;;;;;;;;;;;;;;;4.49;100.00;99948.31;5034145;28;20447;-85
2024/02/13 16:50:01;;;;;;;;;;;;;;;4.47;100.00;99946.63;5033998;28;20008;-86
2024/02/13 16:52:29;;;;;;;;;;;;;;;4.47;100.00;99949.25;5023892;28;19921;-87
2024/02/13 16:54:55;;;;;;;;;;;;;;;4.50;100.00;99944.81;5033945;28;19924;-85
2024/02/13 16:57:20;;;;;;;;;;;;;;;4.47;100.00;99944.84;5032694;28;20391;-86
2024/02/13 16:59:45;;;;;;;;;;;;;;;4.47;100.00;99946.63;5033854;28;19917;-87
2024/02/13 17:02:12;;;;;;;;;;;;;;;4.50;100.00;99938.69;5034065;28;20368;-86
2024/02/13 17:04:37;;;;;;;;;;;;;;;4.47;100.00;99950.09;5033957;28;19924;-85
2024/02/13 17:07:02;;;;;;;;;;;;;;;4.43;100.00;99942.31;5033864;28;19921;-86
2024/02/13 17:09:27;;;;;;;;;;;;;;;4.44;100.00;99944.06;5033790;28;19924;-84
2024/02/13 17:11:53;;;;;;;;;;;;;;;4.43;100.00;99943.16;5022427;28;19921;-85
2024/02/13 17:14:19;;;;;;;;;;;;;;;4.46;100.00;99942.25;5033518;28;19917;-85
2024/02/13 17:16:44;;;;;;;;;;;;;;;4.45;100.00;99951.00;5033697;28;19917;-84
2024/02/13 17:19:13;;;;;;;;;;;;;;;4.45;100.00;99948.38;5033886;28;19971;-85
2024/02/13 17:21:38;;;;;;;;;;;;;;;4.47;100.00;99944.00;5023781;28;19956;-84
2024/02/13 17:24:04;;;;;;;;;;;;;;;4.43;100.00;99948.41;5022838;28;19968;-86
2024/02/13 17:26:29;;;;;;;;;;;;;;;4.48;100.00;99946.59;5031926;28;20016;-85
2024/02/13 17:28:55;;;;;;;;;;;;;;;4.42;100.00;99948.44;5033751;28;20396;-85
2024/02/13 17:31:20;;;;;;;;;;;;;;;4.44;100.00;99952.78;5033010;28;19925;-84
2024/02/13 17:33:46;;;;;;;;;;;;;;;4.45;100.00;99958.88;5033061;28;19917;-84
2024/02/13 17:36:11;;;;;;;;;;;;;;;4.40;100.00;99964.19;5022490;28;19921;-84
2024/02/13 17:38:37;;;;;;;;;;;;;;;4.45;100.00;99957.16;5032983;28;20359;-83
2024/02/13 17:41:02;;;;;;;;;;;;;;;4.41;100.00;99958.06;5032974;28;19917;-87
2024/02/13 17:43:28;;;;;;;;;;;;;;;4.43;100.00;99947.56;5032214;28;20016;-84
2024/02/13 17:45:54;;;;;;;;;;;;;;;4.43;100.00;99953.66;5031286;28;19921;-83
2024/02/13 17:48:20;;;;;;;;;;;;;;;4.39;100.00;99949.38;5032899;28;19924;-84
2024/02/13 17:50:46;;;;;;;;;;;;;;;4.42;100.00;99956.31;5032728;28;19928;-83
2024/02/13 17:53:13;;;;;;;;;;;;;;;4.42;100.00;99954.56;5031992;28;20375;-85
2024/02/13 17:55:39;;;;;;;;;;;;;;;4.39;100.00;99949.38;5032465;28;19966;-85
2024/02/13 17:58:04;;;;;;;;;;;;;;;4.41;100.00;99944.94;5017463;28;19921;-87
2024/02/13 18:00:32;;;;;;;;;;;;;;;4.36;100.00;99952.03;5019716;28;19932;-85
2024/02/13 18:02:58;;;;;;;;;;;;;;;4.38;100.00;99954.63;5032431;28;20014;-85
2024/02/13 18:05:23;;;;;;;;;;;;;;;4.38;100.00;99950.25;5032767;28;20017;-84
2024/02/13 18:07:48;;;;;;;;;;;;;;;4.39;100.00;99951.09;5032068;28;19922;-83
2024/02/13 18:10:13;;;;;;;;;;;;;;;4.40;100.00;99948.44;5031786;28;20329;-84
2024/02/13 18:12:39;;;;;;;;;;;;;;;4.39;100.00;99944.13;5031252;28;20882;-84
2024/02/13 18:15:06;;;;;;;;;;;;;;;4.38;100.00;99941.50;5032145;28;19921;-84
2024/02/13 18:17:31;;;;;;;;;;;;;;;4.36;100.00;99937.16;5032105;28;19936;-83
2024/02/13 18:19:56;;;;;;;;;;;;;;;4.35;100.00;99942.41;5031762;28;20774;-84
2024/02/13 18:22:21;;;;;;;;;;;;;;;4.36;100.00;99942.41;5023248;28;19925;-83
2024/02/13 18:24:48;;;;;;;;;;;;;;;4.41;100.00;99944.94;5023033;28;19925;-84
2024/02/13 18:27:13;;;;;;;;;;;;;;;4.37;100.00;99935.38;5021401;28;19968;-85
2024/02/13 18:29:38;;;;;;;;;;;;;;;4.39;100.00;99938.88;5032349;28;20724;-87
2024/02/13 18:32:06;;;;;;;;;;;;;;;4.39;100.00;99941.50;5032080;28;19917;-85
2024/02/13 18:34:31;;;;;;;;;;;;;;;4.40;100.00;99943.19;5032465;28;19921;-85
2024/02/13 18:36:57;;;;;;;;;;;;;;;4.41;100.00;99944.94;5022822;28;19963;-85
2024/02/13 18:39:25;;;;;;;;;;;;;;;4.38;100.00;99952.88;5031898;28;20007;-85
2024/02/13 18:41:51;;;;;;;;;;;;;;;4.40;100.00;99948.44;5021194;28;20404;-85
2024/02/13 18:44:16;;;;;;;;;;;;;;;4.41;100.00;99944.94;5032262;28;19923;-85
2024/02/13 18:46:42;;;;;;;;;;;;;;;4.43;100.00;99951.03;5032393;28;19924;-85
2024/02/13 18:49:09;;;;;;;;;;;;;;;4.39;100.00;99941.50;5031146;28;20272;-86
2024/02/13 18:51:35;;;;;;;;;;;;;;;4.41;100.00;99950.19;5032053;28;19917;-88
2024/02/13 18:54:01;;;;;;;;;;;;;;;4.39;100.00;99944.13;5022456;28;19932;-85
2024/02/13 18:56:32;;;;;;;;;;;;;;;5.09;100.00;99946.47;5030982;28;19964;-85
2024/02/13 18:58:57;;;;;;;;;;;;;;;4.77;100.00;99947.91;5031990;28;19917;-85
2024/02/13 19:01:23;;;;;;;;;;;;;;;4.66;100.00;99949.81;5031829;28;20448;-89
2024/02/13 19:03:48;;;;;;;;;;;;;;;4.59;100.00;99949.03;5032039;28;19963;-85
2024/02/13 19:06:13;;;;;;;;;;;;;;;4.58;100.00;99951.69;5031899;28;20062;-85
2024/02/13 19:08:38;;;;;;;;;;;;;;;4.62;100.00;99953.38;5022150;28;20455;-85
2024/02/13 19:11:04;;;;;;;;;;;;;;;4.60;100.00;99953.41;5031963;28;20007;-84
2024/02/13 19:13:29;;;;;;;;;;;;;;;4.58;100.00;99951.69;5030829;28;19961;-83
2024/02/13 19:15:54;;;;;;;;;;;;;;;4.61;100.00;99946.38;5031882;28;19921;-84
2024/02/13 19:18:20;;;;;;;;;;;;;;;4.59;100.00;99949.03;5030937;28;19921;-87
2024/02/13 19:20:46;;;;;;;;;;;;;;;4.61;100.00;99949.00;5031894;28;19924;-86
2024/02/13 19:23:11;;;;;;;;;;;;;;;4.65;100.00;99942.84;5021653;28;19921;-85
2024/02/13 19:25:36;;;;;;;;;;;;;;;4.58;100.00;99947.31;5031689;28;20004;-87
2024/02/13 19:28:03;;;;;;;;;;;;;;;4.68;100.00;99948.91;5030638;28;20012;-84
2024/02/13 19:30:29;;;;;;;;;;;;;;;4.57;100.00;99955.22;5031662;28;19924;-84
2024/02/13 19:32:54;;;;;;;;;;;;;;;4.70;100.00;99956.75;5031776;28;20282;-83
2024/02/13 19:35:21;;;;;;;;;;;;;;;4.57;100.00;99958.69;5031731;28;19925;-83
2024/02/13 19:37:47;;;;;;;;;;;;;;;4.58;100.00;99956.94;5021538;28;19925;-83
2024/02/13 19:40:14;;;;;;;;;;;;;;;4.64;100.00;99956.84;5031710;28;19923;-83
2024/02/13 19:42:39;;;;;;;;;;;;;;;4.62;100.00;99954.25;5030424;28;19918;-84
2024/02/13 19:45:04;;;;;;;;;;;;;;;4.60;100.00;99957.81;5031532;28;19928;-87
2024/02/13 19:47:30;;;;;;;;;;;;;;;4.69;100.00;99952.38;5031406;28;20008;-82
2024/02/13 19:49:55;;;;;;;;;;;;;;;4.58;100.00;99951.69;5031473;28;19925;-84
2024/02/13 19:52:21;;;;;;;;;;;;;;;4.64;100.00;99943.72;5021648;28;19920;-84
2024/02/13 19:54:46;;;;;;;;;;;;;;;4.58;100.00;99947.31;5021659;28;19924;-83
2024/02/13 19:57:11;;;;;;;;;;;;;;;4.55;100.00;99942.97;5030249;28;20479;-85
2024/02/13 19:59:39;;;;;;;;;;;;;;;4.50;100.00;99954.41;5032122;28;19971;-85
2024/02/13 20:02:04;;;;;;;;;;;;;;;4.55;100.00;99948.22;5035100;28;19955;-85
2024/02/13 20:04:30;;;;;;;;;;;;;;;4.55;100.00;99952.63;5034933;28;19956;-84
2024/02/13 20:06:55;;;;;;;;;;;;;;;4.49;100.00;99950.09;5034920;28;19921;-84
2024/02/13 20:09:21;;;;;;;;;;;;;;;4.48;100.00;99951.84;5034926;28;19917;-83
2024/02/13 20:11:47;;;;;;;;;;;;;;;4.46;100.00;99953.63;5033915;28;19982;-84
2024/02/13 20:14:12;;;;;;;;;;;;;;;4.48;100.00;99951.84;5025230;28;20296;-84
2024/02/13 20:16:38;;;;;;;;;;;;;;;4.43;100.00;99951.03;5025130;28;19913;-83
2024/02/13 20:19:03;;;;;;;;;;;;;;;4.46;100.00;99958.88;5034551;28;19956;-83
2024/02/13 20:21:29;;;;;;;;;;;;;;;4.39;100.00;99951.09;5034613;28;20833;-84
2024/02/13 20:23:54;;;;;;;;;;;;;;;4.36;100.00;99957.28;5033615;28;19924;-81
2024/02/13 20:26:19;;;;;;;;;;;;;;;4.41;100.00;99946.72;5034631;28;19944;-85
2024/02/13 20:28:45;;;;;;;;;;;;;;;4.41;100.00;99949.34;5032386;28;19921;-91
2024/02/13 20:31:10;;;;;;;;;;;;;;;4.39;100.00;99946.75;5034472;28;19921;-85
2024/02/13 20:33:36;;;;;;;;;;;;;;;4.25;100.00;99944.31;5034547;28;19917;-86
2024/02/13 20:36:02;;;;;;;;;;;;;;;4.24;100.00;99954.81;5034214;28;20403;-84
2024/02/13 20:38:30;;;;;;;;;;;;;;;4.19;100.00;99950.50;5034186;28;20364;-84
2024/02/13 20:40:55;;;;;;;;;;;;;;;4.13;100.00;99950.59;5034335;28;19917;-84
2024/02/13 20:43:24;;;;;;;;;;;;;;;4.11;100.00;99949.75;5023303;28;20031;-85
2024/02/13 20:45:51;;;;;;;;;;;;;;;4.08;100.00;99943.69;5034184;28;19964;-85
2024/02/13 20:48:18;;;;;;;;;;;;;;;4.06;100.00;99953.34;5034090;28;19940;-84
2024/02/13 20:50:43;;;;;;;;;;;;;;;4.09;100.00;99950.66;5034042;28;19917;-85
2024/02/13 20:53:08;;;;;;;;;;;;;;;4.06;100.00;99953.34;5033968;28;19917;-84
2024/02/13 20:55:34;;;;;;;;;;;;;;;4.06;100.00;99951.56;5033914;28;20334;-85
2024/02/13 20:58:00;;;;;;;;;;;;;;;4.02;100.00;99952.50;5032674;28;19963;-85
2024/02/13 21:00:26;;;;;;;;;;;;;;;4.02;100.00;99949.00;5023654;28;19917;-85
2024/02/13 21:02:52;;;;;;;;;;;;;;;4.05;100.00;99948.97;5033950;28;19975;-86
2024/02/13 21:05:21;;;;;;;;;;;;;;;4.00;100.00;99944.66;5032947;28;19917;-84
2024/02/13 21:07:52;;;;;;;;;;;;;;;3.98;100.00;99956.06;5034042;28;19979;-93
2024/02/13 21:10:18;;;;;;;;;;;;;;;4.01;100.00;99950.78;5032881;28;19917;-86
2024/02/13 21:12:43;;;;;;;;;;;;;;;4.02;100.00;99955.13;5031614;28;19975;-84
2024/02/13 21:15:11;;;;;;;;;;;;;;;4.02;100.00;99946.38;5032743;28;20327;-82
2024/02/13 21:17:43;;;;;;;;;;;;;;;4.05;100.00;99947.19;5033335;28;19927;-85
2024/02/13 21:20:10;;;;;;;;;;;;;;;4.10;100.00;99949.75;5022102;28;19917;-84
2024/02/13 21:25:19;;;;;;;;;;;;;;;4.13;100.00;99950.59;5033765;28;19925;-83
2024/02/13 21:27:44;;;;;;;;;;;;;;;4.20;100.00;99961.88;5032038;28;19921;-83
2024/02/13 21:30:10;;;;;;;;;;;;;;;4.17;100.00;99967.16;5033480;28;19971;-81
2024/02/13 21:32:35;;;;;;;;;;;;;;;4.18;100.00;99975.00;5033104;28;19917;-81
2024/02/13 21:35:01;;;;;;;;;;;;;;;4.28;100.00;99981.00;5033506;28;20452;-85
2024/02/13 21:37:26;;;;;;;;;;;;;;;4.22;100.00;99985.47;5033240;28;19957;-81
2024/02/13 21:39:51;;;;;;;;;;;;;;;4.24;100.00;99987.16;5033226;28;19937;-82
2024/02/13 21:42:16;;;;;;;;;;;;;;;4.25;100.00;99981.03;5021932;28;19917;-81
2024/02/13 21:44:41;;;;;;;;;;;;;;;4.27;100.00;99981.88;5033176;28;20284;-82
2024/02/13 21:47:07;;;;;;;;;;;;;;;4.31;100.00;99980.09;5033022;28;19917;-81
2024/02/13 21:49:33;;;;;;;;;;;;;;;4.31;100.00;99982.72;5029732;28;19925;-81